Time;durP1;ratioP1;P1;durP2;ratioP2;P2;SDS_P1;SDS_P2;PMS_P1;PMS_P2;Temp;Humidity;BMP_temperature;BMP_pressure;BME280_temperature;BME280_humidity;BME280_pressure;Samples;Min_cycle;Max_cycle;Signal;HPM_P1;HPM_P2
2023/01/09 00:01:30;;;;;;;0.53;0.40;;;10.00;99.90;;;;;;4897481;29;20206;-70
2023/01/09 00:03:56;;;;;;;0.50;0.40;;;10.00;99.90;;;;;;4896429;29;20198;-72
2023/01/09 00:06:22;;;;;;;0.20;0.20;;;10.00;99.90;;;;;;4906825;29;20212;-70
2023/01/09 00:08:50;;;;;;;0.40;0.30;;;9.90;99.90;;;;;;4899081;29;20294;-71
2023/01/09 00:11:16;;;;;;;0.30;0.30;;;9.90;99.90;;;;;;4904100;29;20201;-70
2023/01/09 00:13:41;;;;;;;0.23;0.20;;;9.80;99.90;;;;;;4901427;29;20229;-71
2023/01/09 00:16:08;;;;;;;0.57;0.30;;;9.70;99.90;;;;;;4894201;29;20183;-71
2023/01/09 00:18:36;;;;;;;0.20;0.20;;;9.70;99.90;;;;;;4891005;29;20229;-70
2023/01/09 00:21:04;;;;;;;0.20;0.20;;;9.60;99.90;;;;;;4900085;29;20179;-70
2023/01/09 00:23:30;;;;;;;0.40;0.30;;;9.60;99.90;;;;;;4896798;29;20397;-70
2023/01/09 00:26:01;;;;;;;0.23;0.20;;;9.50;99.90;;;;;;4897195;29;20187;-70
2023/01/09 00:28:30;;;;;;;0.47;0.10;;;9.50;99.90;;;;;;4915029;29;20216;-70
2023/01/09 00:30:58;;;;;;;0.20;0.20;;;9.60;99.90;;;;;;4909654;29;20189;-71
2023/01/09 00:33:35;;;;;;;0.20;0.20;;;9.50;99.90;;;;;;4900301;29;20182;-71
2023/01/09 00:36:04;;;;;;;0.20;0.20;;;9.40;99.90;;;;;;4899033;29;20201;-70
2023/01/09 00:38:36;;;;;;;0.33;0.20;;;9.40;99.90;;;;;;4899517;29;20237;-71
2023/01/09 00:41:06;;;;;;;0.20;0.20;;;9.50;99.90;;;;;;4900099;29;20187;-71
2023/01/09 00:43:40;;;;;;;0.30;0.20;;;9.50;99.90;;;;;;4902023;29;20174;-71
2023/01/09 00:46:08;;;;;;;2.23;0.30;;;9.50;99.90;;;;;;4897004;29;20211;-71
2023/01/09 00:48:37;;;;;;;0.37;0.30;;;9.50;99.90;;;;;;4911874;29;20207;-71
2023/01/09 00:51:03;;;;;;;0.40;0.40;;;9.40;99.90;;;;;;4929189;29;20276;-72
2023/01/09 00:53:34;;;;;;;0.40;0.30;;;9.40;99.90;;;;;;4895294;29;20240;-71
2023/01/09 00:56:05;;;;;;;0.60;0.30;;;9.40;99.90;;;;;;4899877;29;20190;-71
2023/01/09 00:58:33;;;;;;;0.30;0.30;;;9.40;99.90;;;;;;4906438;29;20207;-71
2023/01/09 01:00:58;;;;;;;0.37;0.30;;;9.50;99.90;;;;;;4893077;29;20227;-70
2023/01/09 01:03:31;;;;;;;0.47;0.30;;;9.40;99.90;;;;;;4899475;29;20195;-71
2023/01/09 01:08:41;;;;;;;0.67;0.40;;;9.40;99.90;;;;;;4897058;29;20228;-70
2023/01/09 01:11:09;;;;;;;0.87;0.47;;;9.40;99.90;;;;;;4899426;29;20170;-72
2023/01/09 01:13:36;;;;;;;0.23;0.20;;;9.40;99.90;;;;;;4901592;29;20191;-71
2023/01/09 01:16:13;;;;;;;0.47;0.20;;;9.40;99.90;;;;;;4918190;29;20192;-71
2023/01/09 01:18:39;;;;;;;0.67;0.40;;;9.40;99.90;;;;;;4898049;29;20262;-71
2023/01/09 01:21:09;;;;;;;1.17;0.73;;;9.50;99.90;;;;;;4896371;29;20254;-71
2023/01/09 01:23:38;;;;;;;0.70;0.50;;;9.50;99.90;;;;;;4900486;29;20234;-72
2023/01/09 01:26:12;;;;;;;0.40;0.40;;;9.50;99.90;;;;;;4897273;29;20209;-71
2023/01/09 01:28:40;;;;;;;0.73;0.43;;;9.50;99.90;;;;;;4896389;29;20206;-71
2023/01/09 01:31:15;;;;;;;0.40;0.40;;;9.50;99.90;;;;;;4895703;29;20211;-71
2023/01/09 01:33:44;;;;;;;0.30;0.30;;;9.50;99.90;;;;;;4906717;29;20304;-70
2023/01/09 01:36:15;;;;;;;0.73;0.27;;;9.50;99.90;;;;;;4904717;29;20202;-70
2023/01/09 01:38:40;;;;;;;0.20;0.20;;;9.50;99.90;;;;;;4908715;29;20199;-70
2023/01/09 01:41:06;;;;;;;0.30;0.30;;;9.50;99.90;;;;;;4894492;29;20202;-70
2023/01/09 01:43:54;;;;;;;1.10;0.80;;;9.50;99.90;;;;;;4895273;29;20193;-71
2023/01/09 01:46:23;;;;;;;0.70;0.40;;;9.50;99.90;;;;;;4895190;29;20180;-70
2023/01/09 01:49:12;;;;;;;0.27;0.27;;;9.50;99.90;;;;;;4889312;29;20175;-70
2023/01/09 01:51:48;;;;;;;0.57;0.30;;;9.50;99.90;;;;;;4895488;29;20202;-70
2023/01/09 01:54:21;;;;;;;0.37;0.30;;;9.50;99.90;;;;;;4898524;29;20209;-70
2023/01/09 01:56:53;;;;;;;0.50;0.30;;;9.50;99.90;;;;;;4972687;23;20231;-70
2023/01/09 01:59:32;;;;;;;0.20;0.20;;;9.50;99.90;;;;;;4935727;29;20205;-70
2023/01/09 02:02:01;;;;;;;0.30;0.30;;;9.60;99.90;;;;;;4933944;29;20271;-70
2023/01/09 02:04:31;;;;;;;0.50;0.20;;;9.50;99.90;;;;;;4934674;29;20182;-70
2023/01/09 02:07:01;;;;;;;0.47;0.23;;;9.50;99.90;;;;;;4935093;29;20188;-70
2023/01/09 02:09:30;;;;;;;0.10;0.10;;;9.50;99.90;;;;;;4943289;29;20184;-70
2023/01/09 02:11:57;;;;;;;0.40;0.20;;;9.50;99.90;;;;;;4937639;29;20201;-73
2023/01/09 02:14:30;;;;;;;0.30;0.30;;;9.50;99.90;;;;;;4935139;29;20209;-70
2023/01/09 02:17:27;;;;;;;0.30;0.20;;;9.40;99.90;;;;;;4920167;29;20186;-70
2023/01/09 02:20:14;;;;;;;0.13;0.13;;;9.40;99.90;;;;;;4934883;29;20304;-70
2023/01/09 02:23:04;;;;;;;0.13;0.13;;;9.40;99.90;;;;;;4927625;29;20186;-70
2023/01/09 02:25:53;;;;;;;0.10;0.10;;;9.30;99.90;;;;;;4929083;29;20232;-70
2023/01/09 02:28:33;;;;;;;0.30;0.30;;;9.30;99.90;;;;;;4947667;29;20296;-71
2023/01/09 02:31:09;;;;;;;0.20;0.20;;;9.30;99.90;;;;;;4932409;29;20272;-70
2023/01/09 02:33:46;;;;;;;1.40;0.20;;;9.30;99.90;;;;;;4934954;29;20275;-71
2023/01/09 02:36:41;;;;;;;0.27;0.20;;;9.20;99.90;;;;;;4933720;29;20193;-70
2023/01/09 02:39:21;;;;;;;0.23;0.20;;;9.20;99.90;;;;;;4892195;29;20237;-71
2023/01/09 02:42:17;;;;;;;0.20;0.20;;;9.20;99.90;;;;;;4933958;29;20204;-71
2023/01/09 02:44:43;;;;;;;0.27;0.23;;;9.10;99.90;;;;;;4924344;29;20196;-70
2023/01/09 02:47:17;;;;;;;0.27;0.27;;;9.10;99.90;;;;;;4934759;29;20193;-70
2023/01/09 02:49:47;;;;;;;0.20;0.20;;;9.10;99.90;;;;;;4940551;29;20227;-70
2023/01/09 02:52:19;;;;;;;0.20;0.20;;;9.10;99.90;;;;;;4940008;29;20248;-70
2023/01/09 02:54:44;;;;;;;0.33;0.30;;;9.00;99.90;;;;;;4936879;29;20190;-70
2023/01/09 02:57:48;;;;;;;0.30;0.30;;;9.00;99.90;;;;;;4943064;29;20204;-70
2023/01/09 03:00:22;;;;;;;0.30;0.30;;;9.00;99.90;;;;;;4948083;29;20216;-70
2023/01/09 03:03:18;;;;;;;0.30;0.20;;;9.00;99.90;;;;;;4931724;29;20191;-71
2023/01/09 03:06:04;;;;;;;0.10;0.10;;;8.90;99.90;;;;;;4945604;28;20220;-70
2023/01/09 03:08:39;;;;;;;0.20;0.20;;;8.90;99.90;;;;;;4939230;29;20184;-70
2023/01/09 03:11:07;;;;;;;0.20;0.20;;;8.90;99.90;;;;;;4938620;29;20181;-70
2023/01/09 03:13:39;;;;;;;0.30;0.20;;;8.90;99.90;;;;;;4949585;29;20213;-70
2023/01/09 03:16:10;;;;;;;0.30;0.30;;;8.90;99.90;;;;;;4938326;29;20188;-70
2023/01/09 03:18:38;;;;;;;0.87;0.30;;;8.90;99.90;;;;;;4938574;29;20304;-69
2023/01/09 03:21:09;;;;;;;1.17;0.20;;;8.90;99.90;;;;;;4933394;29;20241;-69
2023/01/09 03:23:52;;;;;;;0.30;0.30;;;9.00;99.90;;;;;;4937482;29;20191;-70
2023/01/09 03:26:19;;;;;;;0.30;0.30;;;8.90;99.90;;;;;;4938516;29;20288;-70
2023/01/09 03:28:45;;;;;;;0.27;0.20;;;9.00;99.90;;;;;;4937995;29;20181;-70
2023/01/09 03:31:16;;;;;;;0.63;0.20;;;8.90;99.90;;;;;;4935145;29;20180;-70
2023/01/09 03:33:43;;;;;;;0.20;0.20;;;8.90;99.90;;;;;;4934146;29;20221;-70
2023/01/09 03:36:13;;;;;;;0.20;0.20;;;8.80;99.90;;;;;;4938158;29;20213;-71
2023/01/09 03:38:39;;;;;;;0.20;0.20;;;8.80;99.90;;;;;;4935926;29;20248;-70
2023/01/09 03:41:05;;;;;;;0.20;0.20;;;8.80;99.90;;;;;;4936955;29;20205;-70
2023/01/09 03:43:31;;;;;;;0.20;0.20;;;8.80;99.90;;;;;;4938324;29;20346;-70
2023/01/09 03:45:59;;;;;;;0.30;0.20;;;8.80;99.90;;;;;;4937657;29;20198;-70
2023/01/09 03:48:25;;;;;;;1.27;0.40;;;8.80;99.90;;;;;;4936077;29;20214;-70
2023/01/09 03:50:52;;;;;;;0.40;0.37;;;8.70;99.90;;;;;;4936702;29;20212;-70
2023/01/09 03:53:21;;;;;;;0.50;0.20;;;8.70;99.90;;;;;;4931143;29;20174;-70
2023/01/09 03:55:51;;;;;;;0.30;0.30;;;8.60;99.90;;;;;;4934838;29;20193;-70
2023/01/09 03:58:18;;;;;;;0.50;0.30;;;8.70;99.90;;;;;;4938016;29;20244;-70
2023/01/09 04:00:44;;;;;;;0.20;0.20;;;8.60;99.90;;;;;;4937557;29;20189;-70
2023/01/09 04:03:11;;;;;;;0.57;0.40;;;8.70;99.90;;;;;;4938418;29;20312;-70
2023/01/09 04:05:37;;;;;;;0.30;0.30;;;8.70;99.90;;;;;;4936699;29;20197;-70
2023/01/09 04:08:03;;;;;;;0.30;0.30;;;8.60;99.90;;;;;;4939246;29;20272;-70
2023/01/09 04:10:29;;;;;;;0.30;0.30;;;8.60;99.90;;;;;;4938584;29;20236;-70
2023/01/09 04:12:55;;;;;;;0.43;0.30;;;8.60;99.90;;;;;;4947438;29;20201;-70
2023/01/09 04:15:22;;;;;;;0.20;0.20;;;8.60;99.90;;;;;;4937982;29;20264;-74
2023/01/09 04:17:50;;;;;;;0.77;0.40;;;8.50;99.90;;;;;;4936844;29;20173;-76
2023/01/09 04:20:16;;;;;;;0.30;0.30;;;8.50;99.90;;;;;;4937275;29;20221;-78
2023/01/09 04:22:41;;;;;;;1.10;0.40;;;8.50;99.90;;;;;;4934464;29;20201;-76
2023/01/09 04:25:08;;;;;;;0.30;0.20;;;8.40;99.90;;;;;;4944520;29;20185;-75
2023/01/09 04:27:36;;;;;;;0.87;0.30;;;8.40;99.90;;;;;;4953112;29;20237;-77
2023/01/09 04:30:04;;;;;;;0.33;0.33;;;8.30;99.90;;;;;;4944650;29;20184;-76
2023/01/09 04:32:30;;;;;;;0.33;0.30;;;8.30;99.90;;;;;;4943613;29;20205;-72
2023/01/09 04:34:56;;;;;;;0.40;0.40;;;8.30;99.90;;;;;;4930720;29;20276;-78
2023/01/09 04:37:22;;;;;;;0.97;0.50;;;8.20;99.90;;;;;;4931785;29;20193;-79
2023/01/09 04:39:48;;;;;;;0.30;0.30;;;8.20;99.90;;;;;;4937094;29;20224;-78
2023/01/09 04:42:14;;;;;;;0.63;0.40;;;8.20;99.90;;;;;;4937417;29;20277;-78
2023/01/09 04:44:40;;;;;;;0.80;0.50;;;8.20;99.90;;;;;;4934583;29;20205;-75
2023/01/09 04:47:05;;;;;;;2.03;0.70;;;8.20;99.90;;;;;;4927211;29;20281;-78
2023/01/09 04:49:33;;;;;;;0.50;0.40;;;8.20;99.90;;;;;;4934194;29;20182;-77
2023/01/09 04:52:01;;;;;;;3.27;0.50;;;8.20;99.90;;;;;;4926057;29;20221;-77
2023/01/09 04:54:27;;;;;;;1.70;0.50;;;8.20;99.90;;;;;;4937876;29;20184;-76
2023/01/09 04:56:55;;;;;;;1.93;0.40;;;8.30;99.90;;;;;;4941518;29;20205;-77
2023/01/09 04:59:20;;;;;;;0.73;0.47;;;8.30;99.90;;;;;;4950810;29;20219;-78
2023/01/09 05:01:46;;;;;;;4.60;2.90;;;8.40;99.90;;;;;;4942406;29;20201;-76
2023/01/09 05:04:13;;;;;;;2.33;1.30;;;8.40;99.90;;;;;;4942243;29;20208;-76
2023/01/09 05:06:38;;;;;;;1.27;0.90;;;8.50;99.90;;;;;;4936756;29;20197;-77
2023/01/09 05:09:04;;;;;;;0.93;0.57;;;8.50;99.90;;;;;;4937667;29;20192;-77
2023/01/09 05:11:30;;;;;;;1.30;0.63;;;8.50;99.90;;;;;;4935213;29;20182;-78
2023/01/09 05:13:56;;;;;;;1.17;0.50;;;8.50;99.90;;;;;;4938486;29;20236;-76
2023/01/09 05:16:21;;;;;;;1.10;0.57;;;8.50;99.90;;;;;;4936727;29;20205;-78
2023/01/09 05:18:55;;;;;;;1.73;0.97;;;8.60;99.90;;;;;;4932488;29;20300;-77
2023/01/09 05:21:24;;;;;;;0.80;0.53;;;8.50;99.90;;;;;;4936985;29;20321;-77
2023/01/09 05:23:49;;;;;;;1.63;0.70;;;8.50;99.90;;;;;;4937978;29;20182;-78
2023/01/09 05:26:15;;;;;;;1.33;0.60;;;8.60;99.90;;;;;;4936904;29;20348;-76
2023/01/09 05:28:43;;;;;;;1.33;0.53;;;8.60;99.90;;;;;;4936638;29;20189;-76
2023/01/09 05:31:11;;;;;;;0.80;0.60;;;8.70;99.90;;;;;;4936194;29;20189;-76
2023/01/09 05:33:37;;;;;;;1.00;0.53;;;8.70;99.90;;;;;;4934580;29;20301;-75
2023/01/09 05:36:02;;;;;;;0.47;0.40;;;8.70;99.90;;;;;;4939233;29;20271;-74
2023/01/09 05:38:28;;;;;;;2.23;0.90;;;8.80;99.90;;;;;;4936265;29;20290;-75
2023/01/09 05:40:53;;;;;;;1.77;0.60;;;8.80;99.90;;;;;;4934031;29;20205;-73
2023/01/09 05:43:21;;;;;;;1.70;0.50;;;8.90;99.90;;;;;;4939825;29;20177;-75
2023/01/09 05:45:47;;;;;;;0.60;0.43;;;8.90;99.90;;;;;;4934819;29;20262;-76
2023/01/09 05:48:15;;;;;;;0.97;0.50;;;8.90;99.90;;;;;;4929093;29;20283;-76
2023/01/09 05:50:41;;;;;;;1.73;0.53;;;9.00;99.90;;;;;;4936968;29;21175;-74
2023/01/09 05:53:06;;;;;;;1.43;0.70;;;9.00;99.90;;;;;;4936370;29;20173;-75
2023/01/09 05:55:32;;;;;;;1.30;0.50;;;9.00;99.90;;;;;;4930877;29;20200;-79
2023/01/09 05:57:58;;;;;;;1.93;1.20;;;9.10;99.90;;;;;;4928776;29;20185;-79
2023/01/09 06:00:27;;;;;;;0.60;0.50;;;9.10;99.90;;;;;;4926737;29;20289;-79
2023/01/09 06:02:52;;;;;;;1.23;0.67;;;9.10;99.90;;;;;;4936245;29;20248;-76
2023/01/09 06:05:18;;;;;;;1.50;0.67;;;9.10;99.90;;;;;;4936502;29;20181;-78
2023/01/09 06:07:44;;;;;;;1.63;0.70;;;9.10;99.90;;;;;;4935469;29;20216;-78
2023/01/09 06:10:13;;;;;;;0.73;0.43;;;9.00;99.90;;;;;;4936002;29;20260;-78
2023/01/09 06:12:41;;;;;;;2.13;0.60;;;9.10;99.90;;;;;;4935295;29;20189;-79
2023/01/09 06:15:07;;;;;;;1.13;0.53;;;9.00;99.90;;;;;;4936030;29;20189;-78
2023/01/09 06:17:33;;;;;;;1.50;0.57;;;9.00;99.90;;;;;;4935269;29;20192;-79
2023/01/09 06:20:00;;;;;;;0.80;0.57;;;9.00;99.90;;;;;;4935415;29;20217;-75
2023/01/09 06:22:26;;;;;;;1.00;0.47;;;9.00;99.90;;;;;;4936323;29;20201;-79
2023/01/09 06:24:52;;;;;;;0.73;0.50;;;9.00;99.90;;;;;;4934552;29;20205;-76
2023/01/09 06:27:19;;;;;;;1.13;0.43;;;8.90;99.90;;;;;;4936509;29;20288;-80
2023/01/09 06:29:47;;;;;;;1.53;0.60;;;8.90;99.90;;;;;;4930259;29;20248;-79
2023/01/09 06:32:15;;;;;;;0.40;0.40;;;8.90;99.90;;;;;;4923832;29;20205;-78
2023/01/09 06:34:41;;;;;;;0.77;0.50;;;8.80;99.90;;;;;;4947193;29;20260;-77
2023/01/09 06:37:07;;;;;;;2.43;0.70;;;8.80;99.90;;;;;;4935468;29;20245;-78
2023/01/09 06:39:32;;;;;;;1.90;0.50;;;8.80;99.90;;;;;;4935480;29;20319;-78
2023/01/09 06:41:58;;;;;;;1.87;0.57;;;8.80;99.90;;;;;;4935744;29;20599;-78
2023/01/09 06:44:24;;;;;;;1.73;0.60;;;8.80;99.90;;;;;;4935342;29;20196;-78
2023/01/09 06:46:52;;;;;;;0.93;0.50;;;8.80;99.90;;;;;;4932611;29;20185;-78
2023/01/09 06:49:22;;;;;;;1.07;0.60;;;8.80;99.90;;;;;;4935866;29;20195;-78
2023/01/09 06:51:49;;;;;;;1.37;0.60;;;8.90;99.90;;;;;;4935095;29;20240;-73
2023/01/09 06:54:17;;;;;;;1.13;0.60;;;8.90;99.90;;;;;;4935242;29;20283;-73
2023/01/09 06:56:43;;;;;;;0.97;0.57;;;9.00;99.90;;;;;;4935952;29;20201;-76
2023/01/09 06:59:11;;;;;;;0.90;0.50;;;8.90;99.90;;;;;;4934168;29;20197;-79
2023/01/09 07:01:40;;;;;;;2.53;0.60;;;8.90;99.90;;;;;;4934333;29;20208;-78
2023/01/09 07:04:08;;;;;;;2.30;0.70;;;9.00;99.90;;;;;;4934662;29;20182;-77
2023/01/09 07:06:39;;;;;;;0.70;0.50;;;9.00;99.90;;;;;;4935860;29;20177;-78
2023/01/09 07:09:05;;;;;;;2.10;0.53;;;9.00;99.90;;;;;;4935281;29;20185;-79
2023/01/09 07:11:31;;;;;;;1.20;0.50;;;9.00;99.90;;;;;;4934355;29;20223;-75
2023/01/09 07:13:57;;;;;;;0.87;0.40;;;9.10;99.90;;;;;;4933981;29;20305;-78
2023/01/09 07:16:25;;;;;;;0.90;0.43;;;9.10;99.90;;;;;;4935915;29;20201;-78
2023/01/09 07:18:53;;;;;;;3.20;0.57;;;9.10;99.90;;;;;;4930806;29;20485;-77
2023/01/09 07:21:21;;;;;;;0.77;0.40;;;9.10;99.90;;;;;;4935041;29;20244;-77
2023/01/09 07:23:47;;;;;;;0.67;0.50;;;9.20;99.90;;;;;;4934200;29;20181;-77
2023/01/09 07:26:12;;;;;;;2.03;0.60;;;9.20;99.90;;;;;;4935455;29;20192;-78
2023/01/09 07:28:40;;;;;;;2.13;0.53;;;9.20;99.90;;;;;;4935672;29;20205;-78
2023/01/09 07:31:08;;;;;;;0.83;0.50;;;9.10;99.90;;;;;;4936081;29;20197;-77
2023/01/09 07:33:35;;;;;;;1.23;0.50;;;9.10;99.90;;;;;;4931834;29;20216;-79
2023/01/09 07:36:02;;;;;;;1.00;0.50;;;9.20;99.90;;;;;;4936155;29;20268;-76
2023/01/09 07:38:28;;;;;;;0.70;0.57;;;9.30;99.90;;;;;;4937670;29;20217;-76
2023/01/09 07:40:57;;;;;;;0.70;0.40;;;9.20;99.90;;;;;;4925924;29;20193;-78
2023/01/09 07:43:24;;;;;;;0.70;0.43;;;9.30;99.90;;;;;;4939321;29;20201;-78
2023/01/09 07:45:55;;;;;;;0.47;0.40;;;9.30;99.90;;;;;;4935199;29;20241;-77
2023/01/09 07:48:20;;;;;;;2.13;0.80;;;9.20;99.90;;;;;;4924193;29;20205;-78
2023/01/09 07:50:48;;;;;;;2.10;0.57;;;9.30;99.90;;;;;;4935627;29;20213;-79
2023/01/09 07:53:16;;;;;;;1.53;0.60;;;9.30;99.90;;;;;;4938677;29;20173;-78
2023/01/09 07:55:42;;;;;;;1.07;0.60;;;9.30;99.90;;;;;;5062724;23;20404;-76
2023/01/09 07:58:08;;;;;;;0.97;0.50;;;9.30;99.90;;;;;;4958583;29;20549;-75
2023/01/09 08:00:34;;;;;;;0.30;0.30;;;9.30;99.90;;;;;;4942213;29;20284;-78
2023/01/09 08:03:05;;;;;;;1.87;0.50;;;9.30;99.90;;;;;;4948533;29;20257;-78
2023/01/09 08:05:30;;;;;;;1.43;0.50;;;9.30;99.90;;;;;;4938399;29;20173;-77
2023/01/09 08:07:58;;;;;;;0.57;0.40;;;9.30;99.90;;;;;;4936789;29;20202;-77
2023/01/09 08:10:24;;;;;;;1.50;0.30;;;9.40;99.90;;;;;;4941988;29;20238;-78
2023/01/09 08:12:49;;;;;;;1.40;0.40;;;9.40;99.90;;;;;;4937473;28;20271;-78
2023/01/09 08:15:15;;;;;;;1.10;0.43;;;9.30;99.90;;;;;;4930414;29;20320;-78
2023/01/09 08:17:43;;;;;;;0.50;0.50;;;9.40;99.90;;;;;;4926678;29;20329;-76
2023/01/09 08:20:13;;;;;;;1.43;0.50;;;9.40;99.90;;;;;;4934853;29;20198;-78
2023/01/09 08:22:48;;;;;;;0.70;0.40;;;9.40;99.90;;;;;;4937953;29;20244;-77
2023/01/09 08:25:17;;;;;;;0.70;0.50;;;9.40;99.90;;;;;;4945947;29;20173;-78
2023/01/09 08:27:42;;;;;;;1.33;0.50;;;9.50;99.90;;;;;;4937794;29;20205;-73
2023/01/09 08:30:09;;;;;;;1.13;0.73;;;9.40;99.90;;;;;;4938267;29;20196;-79
2023/01/09 08:32:40;;;;;;;1.40;0.50;;;9.50;99.90;;;;;;4954292;29;20186;-77
2023/01/09 08:35:06;;;;;;;1.00;0.57;;;9.50;99.90;;;;;;4931548;29;20317;-79
2023/01/09 08:37:32;;;;;;;0.53;0.40;;;9.50;99.90;;;;;;4936357;29;20185;-78
2023/01/09 08:39:58;;;;;;;0.77;0.40;;;9.50;99.90;;;;;;4941035;29;20223;-78
2023/01/09 08:47:58;;;;;;;1.37;0.50;;;9.50;99.90;;;;;;4934893;29;20212;-80
2023/01/09 08:50:26;;;;;;;0.80;0.50;;;9.60;99.90;;;;;;4929016;29;20174;-77
2023/01/09 08:52:52;;;;;;;1.20;0.40;;;9.60;99.90;;;;;;4935374;29;20332;-78
2023/01/09 08:55:17;;;;;;;0.87;0.47;;;9.60;99.90;;;;;;4937417;29;20231;-77
2023/01/09 08:57:48;;;;;;;1.10;0.63;;;9.60;99.90;;;;;;4938357;29;20185;-79
2023/01/09 09:00:14;;;;;;;2.90;0.50;;;9.60;99.90;;;;;;4932803;29;20207;-80
2023/01/09 09:02:39;;;;;;;0.82;0.32;;;9.60;99.90;;;;;;4924066;29;20213;-76
2023/01/09 09:05:05;;;;;;;0.70;0.50;;;9.70;99.90;;;;;;4939686;29;20224;-77
2023/01/09 09:07:31;;;;;;;2.17;0.63;;;9.70;99.90;;;;;;4935059;29;20205;-78
2023/01/09 09:09:57;;;;;;;2.47;0.63;;;9.70;99.90;;;;;;4939360;29;20185;-75
2023/01/09 09:12:25;;;;;;;1.40;0.50;;;9.80;99.90;;;;;;4943527;29;20215;-78
2023/01/09 09:17:35;;;;;;;1.10;0.50;;;9.80;99.90;;;;;;4924540;29;20181;-78
2023/01/09 09:20:01;;;;;;;0.77;0.40;;;9.90;99.90;;;;;;4937505;29;20193;-79
2023/01/09 09:22:29;;;;;;;2.00;0.60;;;9.90;99.90;;;;;;4936861;29;20197;-74
2023/01/09 09:24:55;;;;;;;0.70;0.50;;;10.00;99.90;;;;;;4942801;29;20188;-79
2023/01/09 09:27:21;;;;;;;0.67;0.50;;;10.10;99.90;;;;;;4943444;29;20177;-75
2023/01/09 09:29:49;;;;;;;0.75;0.52;;;10.20;99.90;;;;;;4933888;29;20214;-75
2023/01/09 09:32:14;;;;;;;1.60;0.70;;;10.40;99.90;;;;;;4936945;29;20213;-76
2023/01/09 09:34:45;;;;;;;0.82;0.43;;;10.60;99.90;;;;;;4949652;29;20239;-79
2023/01/09 09:37:10;;;;;;;0.68;0.50;;;10.70;99.90;;;;;;4945909;29;20251;-80
2023/01/09 09:39:36;;;;;;;1.98;0.50;;;10.90;99.90;;;;;;4937900;29;20402;-78
2023/01/09 09:45:14;;;;;;;0.90;0.50;;;11.20;99.90;;;;;;4929630;29;20296;-77
2023/01/09 09:47:45;;;;;;;1.55;0.65;;;11.40;99.90;;;;;;4932684;29;20205;-74
2023/01/09 09:50:38;;;;;;;0.60;0.40;;;11.40;99.90;;;;;;4936734;29;20219;-79
2023/01/09 09:53:39;;;;;;;0.73;0.45;;;11.40;99.90;;;;;;4933133;29;20186;-78
2023/01/09 09:56:07;;;;;;;0.77;0.50;;;11.30;99.90;;;;;;4912147;29;20206;-73
2023/01/09 09:58:41;;;;;;;0.80;0.60;;;11.30;99.90;;;;;;4917747;29;20202;-79
2023/01/09 10:01:09;;;;;;;1.27;0.60;;;11.30;99.90;;;;;;4947279;29;20186;-78
2023/01/09 10:03:42;;;;;;;1.02;0.50;;;11.30;99.90;;;;;;4933175;29;20189;-76
2023/01/09 10:06:15;;;;;;;0.77;0.40;;;11.30;99.90;;;;;;4921169;29;20242;-78
2023/01/09 10:09:07;;;;;;;2.58;0.90;;;11.30;99.90;;;;;;4945479;29;20192;-79
2023/01/09 10:11:54;;;;;;;1.67;0.73;;;11.20;99.90;;;;;;4943695;29;20194;-78
2023/01/09 10:14:22;;;;;;;1.10;0.47;;;11.20;99.90;;;;;;4939593;29;20181;-78
2023/01/09 10:17:05;;;;;;;1.27;0.60;;;11.20;99.90;;;;;;4936640;29;20196;-78
2023/01/09 10:20:11;;;;;;;0.60;0.30;;;11.20;99.90;;;;;;4936813;29;20327;-74
2023/01/09 10:22:48;;;;;;;0.85;0.50;;;11.20;99.90;;;;;;4941303;29;20268;-79
2023/01/09 10:25:24;;;;;;;0.73;0.50;;;11.20;99.90;;;;;;4917906;29;20172;-79
2023/01/09 10:28:25;;;;;;;0.63;0.40;;;11.20;99.90;;;;;;4936315;29;20201;-79
2023/01/09 10:30:59;;;;;;;1.48;0.47;;;11.30;99.90;;;;;;4937830;29;20169;-81
2023/01/09 10:33:42;;;;;;;1.27;0.43;;;11.30;99.90;;;;;;4953985;29;20268;-79
2023/01/09 10:36:20;;;;;;;0.28;0.25;;;11.30;99.90;;;;;;4936196;29;20208;-80
2023/01/09 10:38:49;;;;;;;0.98;0.30;;;11.30;99.90;;;;;;4928238;29;20232;-79
2023/01/09 10:41:30;;;;;;;0.63;0.30;;;11.20;99.90;;;;;;4943032;29;20184;-74
2023/01/09 10:44:04;;;;;;;0.40;0.30;;;11.20;99.90;;;;;;4936278;29;20204;-78
2023/01/09 10:46:46;;;;;;;0.68;0.45;;;11.20;99.90;;;;;;4944111;29;20263;-79
2023/01/09 10:49:15;;;;;;;0.60;0.38;;;11.20;99.90;;;;;;4928607;29;20276;-77
2023/01/09 10:51:56;;;;;;;1.30;0.50;;;11.20;99.90;;;;;;4930441;29;20236;-79
2023/01/09 10:54:26;;;;;;;0.60;0.40;;;11.20;99.90;;;;;;4928852;29;20173;-79
2023/01/09 10:57:09;;;;;;;0.68;0.43;;;11.20;99.90;;;;;;4935545;29;20220;-80
2023/01/09 10:59:35;;;;;;;1.02;0.40;;;11.20;99.90;;;;;;4937520;29;20291;-79
2023/01/09 11:02:01;;;;;;;0.30;0.30;;;11.20;99.90;;;;;;4931334;29;20210;-78
2023/01/09 11:04:36;;;;;;;0.35;0.30;;;11.20;99.90;;;;;;4928579;29;20306;-80
2023/01/09 11:07:16;;;;;;;0.20;0.20;;;11.20;99.90;;;;;;4943458;29;20197;-79
2023/01/09 11:10:10;;;;;;;0.30;0.30;;;11.20;99.90;;;;;;4936400;29;20171;-79
2023/01/09 11:12:42;;;;;;;1.13;0.40;;;11.20;99.90;;;;;;4942837;29;20271;-79
2023/01/09 11:15:19;;;;;;;0.40;0.30;;;11.20;99.90;;;;;;4942361;29;20244;-77
2023/01/09 11:17:46;;;;;;;0.80;0.20;;;11.10;99.90;;;;;;4928096;29;20204;-76
2023/01/09 11:20:26;;;;;;;0.85;0.50;;;11.10;99.90;;;;;;4939850;29;20201;-80
2023/01/09 11:22:54;;;;;;;0.45;0.30;;;11.10;99.90;;;;;;4932741;29;20186;-80
2023/01/09 11:25:28;;;;;;;0.45;0.30;;;11.10;99.90;;;;;;4925111;29;20297;-79
2023/01/09 11:28:05;;;;;;;0.60;0.50;;;11.10;99.90;;;;;;4927893;29;20214;-80
2023/01/09 11:30:53;;;;;;;0.55;0.35;;;11.10;99.90;;;;;;4939737;29;20179;-78
2023/01/09 11:33:25;;;;;;;0.88;0.38;;;11.10;99.90;;;;;;4924740;29;20248;-80
2023/01/09 11:36:06;;;;;;;0.38;0.38;;;11.20;99.90;;;;;;4953054;29;20184;-78
2023/01/09 11:38:46;;;;;;;0.40;0.22;;;11.20;99.90;;;;;;4953824;29;20181;-77
2023/01/09 11:41:18;;;;;;;2.00;0.40;;;11.10;99.90;;;;;;4935991;29;20260;-76
2023/01/09 11:43:46;;;;;;;0.75;0.40;;;11.10;99.90;;;;;;4934681;29;20349;-78
2023/01/09 11:46:29;;;;;;;0.68;0.20;;;11.10;99.90;;;;;;4949993;29;20173;-75
2023/01/09 11:48:57;;;;;;;0.55;0.40;;;11.10;99.90;;;;;;4958546;29;20253;-77
2023/01/09 11:51:26;;;;;;;0.80;0.40;;;11.20;99.90;;;;;;4950459;29;20181;-79
2023/01/09 11:54:16;;;;;;;0.73;0.40;;;11.20;99.90;;;;;;4939830;29;20189;-77
2023/01/09 11:56:45;;;;;;;0.40;0.40;;;11.20;99.90;;;;;;4929479;29;20201;-79
2023/01/09 11:59:15;;;;;;;1.65;0.30;;;11.20;99.90;;;;;;4928760;29;20209;-79
2023/01/09 12:02:14;;;;;;;1.13;0.40;;;11.20;99.90;;;;;;4921755;29;20188;-79
2023/01/09 12:04:57;;;;;;;1.65;0.40;;;11.20;99.90;;;;;;4919915;29;20206;-75
2023/01/09 12:07:51;;;;;;;1.15;0.40;;;11.20;99.90;;;;;;4937743;29;20189;-79
2023/01/09 12:10:45;;;;;;;0.20;0.20;;;11.10;99.90;;;;;;4944516;29;20205;-79
2023/01/09 12:13:39;;;;;;;0.22;0.22;;;11.10;99.90;;;;;;4939069;29;20240;-75
2023/01/09 12:16:34;;;;;;;0.30;0.25;;;11.00;99.90;;;;;;4925433;29;20174;-79
2023/01/09 12:19:28;;;;;;;0.50;0.30;;;11.00;99.90;;;;;;4872131;29;20249;-79
2023/01/09 12:22:13;;;;;;;0.70;0.30;;;10.90;99.90;;;;;;4920597;29;20242;-77
2023/01/09 12:25:14;;;;;;;0.55;0.30;;;10.90;99.90;;;;;;4933434;29;20379;-73
2023/01/09 12:28:35;;;;;;;0.30;0.20;;;10.80;99.90;;;;;;4916957;29;20185;-71
2023/01/09 12:31:33;;;;;;;0.47;0.20;;;10.80;99.90;;;;;;4899106;29;20214;-71
2023/01/09 12:34:21;;;;;;;0.32;0.30;;;10.80;99.90;;;;;;4897954;29;20185;-71
2023/01/09 12:37:24;;;;;;;0.43;0.30;;;10.80;99.90;;;;;;4937080;29;20195;-70
2023/01/09 12:40:23;;;;;;;0.30;0.30;;;10.80;99.90;;;;;;4936742;29;20264;-70
2023/01/09 12:43:19;;;;;;;0.17;0.10;;;10.80;99.90;;;;;;4935343;29;20228;-70
2023/01/09 12:46:10;;;;;;;0.40;0.30;;;10.80;99.90;;;;;;4919074;29;20213;-70
2023/01/09 12:48:54;;;;;;;0.20;0.20;;;10.80;99.90;;;;;;4941082;29;20204;-71
2023/01/09 12:51:38;;;;;;;0.30;0.20;;;10.80;99.90;;;;;;4918960;29;20197;-71
2023/01/09 12:54:31;;;;;;;0.20;0.20;;;10.70;99.90;;;;;;4935449;29;20201;-71
2023/01/09 12:57:02;;;;;;;0.38;0.20;;;10.70;99.90;;;;;;4937645;29;20197;-71
2023/01/09 12:59:40;;;;;;;0.20;0.20;;;10.60;99.90;;;;;;4919989;29;20217;-72
2023/01/09 13:02:31;;;;;;;0.13;0.10;;;10.70;99.90;;;;;;4934503;29;20208;-70
2023/01/09 13:05:06;;;;;;;0.20;0.17;;;10.60;99.90;;;;;;4905252;29;20209;-71
2023/01/09 13:07:41;;;;;;;1.00;0.20;;;10.60;99.90;;;;;;4920060;29;20232;-71
2023/01/09 13:10:23;;;;;;;0.52;0.10;;;10.70;99.90;;;;;;4920515;29;20485;-71
2023/01/09 13:12:50;;;;;;;0.25;0.17;;;10.60;99.90;;;;;;4937725;29;20252;-71
2023/01/09 13:15:36;;;;;;;0.50;0.30;;;10.70;99.90;;;;;;4937608;29;20197;-71
2023/01/09 13:18:10;;;;;;;0.35;0.30;;;10.70;99.90;;;;;;4931218;29;20273;-70
2023/01/09 13:20:55;;;;;;;1.33;0.50;;;10.70;99.90;;;;;;4929155;29;20260;-70
2023/01/09 13:23:34;;;;;;;0.22;0.22;;;10.70;99.90;;;;;;4937809;29;20205;-70
2023/01/09 13:26:08;;;;;;;1.77;0.40;;;10.70;99.90;;;;;;4926418;29;20207;-70
2023/01/09 13:28:47;;;;;;;0.38;0.28;;;10.80;99.90;;;;;;4924316;29;20359;-70
2023/01/09 13:31:44;;;;;;;1.05;0.43;;;10.70;99.90;;;;;;4934133;29;20197;-71
2023/01/09 13:34:20;;;;;;;0.50;0.38;;;10.70;99.90;;;;;;4936235;29;20181;-71